sensor_id;sensor_type;location;lat;lon;timestamp;pressure;altitude;pressure_sealevel;temperature;humidity
9538;BME280;4807;48.024;11.726;2023-02-23T00:00:05;94604.78;;;5.48;72.36
9538;BME280;4807;48.024;11.726;2023-02-23T00:03:22;94611.06;;;5.47;72.44
9538;BME280;4807;48.024;11.726;2023-02-23T00:06:33;94604.78;;;5.48;73.00
9538;BME280;4807;48.024;11.726;2023-02-23T00:09:43;94614.34;;;5.49;72.82
9538;BME280;4807;48.024;11.726;2023-02-23T00:12:52;94614.28;;;5.57;73.27
9538;BME280;4807;48.024;11.726;2023-02-23T00:16:05;94611.63;;;5.57;73.52
9538;BME280;4807;48.024;11.726;2023-02-23T00:19:15;94608.34;;;5.55;73.88
9538;BME280;4807;48.024;11.726;2023-02-23T00:22:25;94603.97;;;5.62;73.59
9538;BME280;4807;48.024;11.726;2023-02-23T00:25:33;94610.34;;;5.68;73.71
9538;BME280;4807;48.024;11.726;2023-02-23T00:28:47;94608.38;;;5.85;73.68
9538;BME280;4807;48.024;11.726;2023-02-23T00:31:57;94610.41;;;5.83;73.38
9538;BME280;4807;48.024;11.726;2023-02-23T00:35:08;94604.63;;;6.02;72.82
9538;BME280;4807;48.024;11.726;2023-02-23T00:38:23;94602.09;;;6.23;72.51
9538;BME280;4807;48.024;11.726;2023-02-23T00:41:32;94604.34;;;6.11;72.60
9538;BME280;4807;48.024;11.726;2023-02-23T00:44:41;94609.19;;;6.08;72.03
9538;BME280;4807;48.024;11.726;2023-02-23T00:47:49;94604.91;;;6.07;71.87
9538;BME280;4807;48.024;11.726;2023-02-23T00:51:00;94619.22;;;5.98;72.00
9538;BME280;4807;48.024;11.726;2023-02-23T00:54:12;94614.56;;;6.00;72.78
9538;BME280;4807;48.024;11.726;2023-02-23T00:57:20;94613.75;;;6.14;72.61
9538;BME280;4807;48.024;11.726;2023-02-23T01:00:29;94602.91;;;6.24;72.92
9538;BME280;4807;48.024;11.726;2023-02-23T01:03:39;94603.34;;;6.27;73.42
9538;BME280;4807;48.024;11.726;2023-02-23T01:06:49;94610.81;;;6.09;73.53
9538;BME280;4807;48.024;11.726;2023-02-23T01:09:58;94614.09;;;5.96;73.97
9538;BME280;4807;48.024;11.726;2023-02-23T01:13:07;94614.38;;;6.01;73.72
9538;BME280;4807;48.024;11.726;2023-02-23T01:16:19;94612.47;;;6.10;73.99
9538;BME280;4807;48.024;11.726;2023-02-23T01:19:27;94615.91;;;6.10;74.48
9538;BME280;4807;48.024;11.726;2023-02-23T01:22:46;94612.19;;;6.20;74.51
9538;BME280;4807;48.024;11.726;2023-02-23T01:25:55;94613.47;;;6.24;74.33
9538;BME280;4807;48.024;11.726;2023-02-23T01:29:07;94617.13;;;6.23;74.27
9538;BME280;4807;48.024;11.726;2023-02-23T01:32:15;94614.00;;;6.34;73.91
9538;BME280;4807;48.024;11.726;2023-02-23T01:35:23;94614.91;;;6.26;74.40
9538;BME280;4807;48.024;11.726;2023-02-23T01:38:33;94616.03;;;6.32;74.57
9538;BME280;4807;48.024;11.726;2023-02-23T01:41:42;94613.47;;;6.24;74.97
9538;BME280;4807;48.024;11.726;2023-02-23T01:45:25;94608.84;;;6.40;74.48
9538;BME280;4807;48.024;11.726;2023-02-23T01:48:38;94613.00;;;6.35;74.01
9538;BME280;4807;48.024;11.726;2023-02-23T01:51:52;94612.34;;;6.33;74.72
9538;BME280;4807;48.024;11.726;2023-02-23T01:55:05;94604.63;;;6.31;74.63
9538;BME280;4807;48.024;11.726;2023-02-23T01:58:20;94609.94;;;6.31;74.41
9538;BME280;4807;48.024;11.726;2023-02-23T02:01:29;94605.91;;;6.35;74.84
9538;BME280;4807;48.024;11.726;2023-02-23T02:04:41;94597.88;;;6.43;74.62
9538;BME280;4807;48.024;11.726;2023-02-23T02:07:52;94596.88;;;6.44;74.48
9538;BME280;4807;48.024;11.726;2023-02-23T02:11:06;94591.47;;;6.53;74.28
9538;BME280;4807;48.024;11.726;2023-02-23T02:14:31;94588.56;;;6.47;74.90
9538;BME280;4807;48.024;11.726;2023-02-23T02:17:45;94589.56;;;6.46;74.47
9538;BME280;4807;48.024;11.726;2023-02-23T02:21:52;94587.94;;;6.45;74.72
9538;BME280;4807;48.024;11.726;2023-02-23T02:25:35;94591.84;;;6.49;74.59
9538;BME280;4807;48.024;11.726;2023-02-23T02:29:45;94585.44;;;6.59;74.16
9538;BME280;4807;48.024;11.726;2023-02-23T02:33:31;94590.38;;;6.62;74.32
9538;BME280;4807;48.024;11.726;2023-02-23T02:37:29;94574.56;;;6.68;74.31
9538;BME280;4807;48.024;11.726;2023-02-23T02:40:45;94582.25;;;6.63;74.68
9538;BME280;4807;48.024;11.726;2023-02-23T02:44:10;94579.22;;;6.66;74.38
9538;BME280;4807;48.024;11.726;2023-02-23T02:47:28;94578.91;;;6.55;75.02
9538;BME280;4807;48.024;11.726;2023-02-23T02:50:46;94583.97;;;6.71;74.20
9538;BME280;4807;48.024;11.726;2023-02-23T02:54:05;94579.25;;;6.51;75.19
9538;BME280;4807;48.024;11.726;2023-02-23T02:57:18;94576.22;;;6.69;74.46
9538;BME280;4807;48.024;11.726;2023-02-23T03:00:35;94580.75;;;6.75;74.46
9538;BME280;4807;48.024;11.726;2023-02-23T03:04:19;94578.38;;;6.80;74.38
9538;BME280;4807;48.024;11.726;2023-02-23T03:07:56;94577.09;;;6.76;74.49
9538;BME280;4807;48.024;11.726;2023-02-23T03:11:38;94576.75;;;6.79;74.32
9538;BME280;4807;48.024;11.726;2023-02-23T03:15:23;94587.41;;;6.86;74.49
9538;BME280;4807;48.024;11.726;2023-02-23T03:19:09;94578.28;;;6.74;74.73
9538;BME280;4807;48.024;11.726;2023-02-23T03:22:46;94580.81;;;6.82;74.69
9538;BME280;4807;48.024;11.726;2023-02-23T03:26:26;94585.16;;;7.04;74.04
9538;BME280;4807;48.024;11.726;2023-02-23T03:30:03;94582.41;;;6.98;73.81
9538;BME280;4807;48.024;11.726;2023-02-23T03:33:41;94583.00;;;6.93;74.01
9538;BME280;4807;48.024;11.726;2023-02-23T03:37:15;94583.81;;;6.94;74.06
9538;BME280;4807;48.024;11.726;2023-02-23T03:40:48;94589.94;;;6.94;74.34
9538;BME280;4807;48.024;11.726;2023-02-23T03:44:21;94597.22;;;6.92;74.80
9538;BME280;4807;48.024;11.726;2023-02-23T03:47:54;94594.34;;;6.87;74.93
9538;BME280;4807;48.024;11.726;2023-02-23T03:51:24;94590.16;;;6.99;74.24
9538;BME280;4807;48.024;11.726;2023-02-23T03:54:57;94588.41;;;7.06;74.19
9538;BME280;4807;48.024;11.726;2023-02-23T03:58:30;94587.94;;;7.17;73.98
9538;BME280;4807;48.024;11.726;2023-02-23T04:01:59;94586.78;;;7.26;73.04
9538;BME280;4807;48.024;11.726;2023-02-23T04:05:29;94594.22;;;7.16;73.93
9538;BME280;4807;48.024;11.726;2023-02-23T04:08:58;94601.03;;;7.04;73.92
9538;BME280;4807;48.024;11.726;2023-02-23T04:12:33;94592.63;;;7.01;74.37
9538;BME280;4807;48.024;11.726;2023-02-23T04:16:06;94601.28;;;7.09;74.30
9538;BME280;4807;48.024;11.726;2023-02-23T04:19:13;94594.75;;;7.05;74.03
9538;BME280;4807;48.024;11.726;2023-02-23T04:22:24;94602.28;;;7.08;74.28
9538;BME280;4807;48.024;11.726;2023-02-23T04:25:32;94593.28;;;7.03;74.67
9538;BME280;4807;48.024;11.726;2023-02-23T04:28:41;94598.34;;;7.19;73.61
9538;BME280;4807;48.024;11.726;2023-02-23T04:31:49;94596.22;;;7.14;74.06
9538;BME280;4807;48.024;11.726;2023-02-23T04:34:59;94596.16;;;6.86;75.00
9538;BME280;4807;48.024;11.726;2023-02-23T04:38:09;94600.75;;;6.99;74.53
9538;BME280;4807;48.024;11.726;2023-02-23T04:41:17;94599.81;;;7.07;73.73
9538;BME280;4807;48.024;11.726;2023-02-23T04:44:26;94602.28;;;7.08;73.51
9538;BME280;4807;48.024;11.726;2023-02-23T04:47:34;94604.28;;;7.06;74.06
9538;BME280;4807;48.024;11.726;2023-02-23T04:50:43;94601.66;;;7.06;73.90
9538;BME280;4807;48.024;11.726;2023-02-23T04:53:52;94598.56;;;7.03;74.07
9538;BME280;4807;48.024;11.726;2023-02-23T04:57:00;94609.38;;;6.86;74.64
9538;BME280;4807;48.024;11.726;2023-02-23T05:00:10;94609.75;;;6.83;74.67
9538;BME280;4807;48.024;11.726;2023-02-23T05:03:19;94609.81;;;6.90;74.58
9538;BME280;4807;48.024;11.726;2023-02-23T05:06:29;94603.28;;;7.07;74.07
9538;BME280;4807;48.024;11.726;2023-02-23T05:09:38;94610.34;;;7.00;74.38
9538;BME280;4807;48.024;11.726;2023-02-23T05:12:47;94605.44;;;6.97;74.61
9538;BME280;4807;48.024;11.726;2023-02-23T05:15:56;94598.13;;;6.99;74.39
9538;BME280;4807;48.024;11.726;2023-02-23T05:19:05;94601.84;;;7.05;73.68
9538;BME280;4807;48.024;11.726;2023-02-23T05:22:14;94608.69;;;6.99;74.45
9538;BME280;4807;48.024;11.726;2023-02-23T05:25:24;94603.03;;;7.02;73.74
9538;BME280;4807;48.024;11.726;2023-02-23T05:28:35;94598.13;;;6.99;74.03
9538;BME280;4807;48.024;11.726;2023-02-23T05:31:43;94603.69;;;7.04;74.31
9538;BME280;4807;48.024;11.726;2023-02-23T05:34:52;94606.81;;;6.93;74.68
9538;BME280;4807;48.024;11.726;2023-02-23T05:38:00;94606.81;;;6.93;74.19
9538;BME280;4807;48.024;11.726;2023-02-23T05:41:14;94606.16;;;6.91;73.90
9538;BME280;4807;48.024;11.726;2023-02-23T05:44:23;94608.69;;;6.99;73.71
9538;BME280;4807;48.024;11.726;2023-02-23T05:47:32;94603.44;;;6.84;74.51
9538;BME280;4807;48.024;11.726;2023-02-23T05:50:45;94601.28;;;6.73;74.92
9538;BME280;4807;48.024;11.726;2023-02-23T05:53:53;94604.50;;;6.69;74.78
9538;BME280;4807;48.024;11.726;2023-02-23T05:57:02;94608.22;;;6.74;75.01
9538;BME280;4807;48.024;11.726;2023-02-23T06:00:12;94608.88;;;6.62;75.33
9538;BME280;4807;48.024;11.726;2023-02-23T06:03:20;94620.13;;;6.64;75.24
9538;BME280;4807;48.024;11.726;2023-02-23T06:06:28;94608.09;;;6.46;75.36
9538;BME280;4807;48.024;11.726;2023-02-23T06:09:36;94617.84;;;6.31;75.55
9538;BME280;4807;48.024;11.726;2023-02-23T06:12:46;94623.25;;;6.23;75.90
9538;BME280;4807;48.024;11.726;2023-02-23T06:15:54;94616.22;;;6.16;75.81
9538;BME280;4807;48.024;11.726;2023-02-23T06:19:03;94623.69;;;6.12;75.96
9538;BME280;4807;48.024;11.726;2023-02-23T06:22:11;94628.41;;;6.17;75.42
9538;BME280;4807;48.024;11.726;2023-02-23T06:25:20;94631.25;;;6.15;76.25
9538;BME280;4807;48.024;11.726;2023-02-23T06:28:29;94639.34;;;6.13;75.96
9538;BME280;4807;48.024;11.726;2023-02-23T06:31:38;94637.72;;;6.12;76.36
9538;BME280;4807;48.024;11.726;2023-02-23T06:34:46;94637.81;;;6.19;75.97
9538;BME280;4807;48.024;11.726;2023-02-23T06:37:59;94638.44;;;6.21;76.08
9538;BME280;4807;48.024;11.726;2023-02-23T06:41:07;94639.19;;;6.30;75.74
9538;BME280;4807;48.024;11.726;2023-02-23T06:44:17;94645.63;;;6.42;75.46
9538;BME280;4807;48.024;11.726;2023-02-23T06:47:25;94648.28;;;6.42;75.45
9538;BME280;4807;48.024;11.726;2023-02-23T06:50:34;94655.22;;;6.58;74.87
9538;BME280;4807;48.024;11.726;2023-02-23T06:53:42;94658.69;;;6.58;75.24
9538;BME280;4807;48.024;11.726;2023-02-23T06:56:50;94656.50;;;6.62;74.85
9538;BME280;4807;48.024;11.726;2023-02-23T07:00:00;94659.47;;;6.73;74.33
9538;BME280;4807;48.024;11.726;2023-02-23T07:03:09;94658.66;;;6.87;74.08
9538;BME280;4807;48.024;11.726;2023-02-23T07:06:17;94664.09;;;7.01;73.67
9538;BME280;4807;48.024;11.726;2023-02-23T07:09:26;94659.41;;;7.17;73.31
9538;BME280;4807;48.024;11.726;2023-02-23T07:12:36;94658.16;;;7.35;72.70
9538;BME280;4807;48.024;11.726;2023-02-23T07:15:46;94662.59;;;7.49;72.33
9538;BME280;4807;48.024;11.726;2023-02-23T07:18:54;94657.03;;;7.65;72.82
9538;BME280;4807;48.024;11.726;2023-02-23T07:22:03;94656.59;;;7.83;72.04
9538;BME280;4807;48.024;11.726;2023-02-23T07:25:11;94664.72;;;8.02;70.92
9538;BME280;4807;48.024;11.726;2023-02-23T07:28:20;94656.50;;;8.25;71.00
9538;BME280;4807;48.024;11.726;2023-02-23T07:31:29;94658.44;;;8.38;71.24
9538;BME280;4807;48.024;11.726;2023-02-23T07:34:37;94659.56;;;8.50;70.68
9538;BME280;4807;48.024;11.726;2023-02-23T07:37:46;94660.84;;;8.61;70.42
9538;BME280;4807;48.024;11.726;2023-02-23T07:40:55;94654.97;;;8.72;70.60
9538;BME280;4807;48.024;11.726;2023-02-23T07:44:04;94658.28;;;8.80;70.15
9538;BME280;4807;48.024;11.726;2023-02-23T07:47:13;94657.50;;;8.87;70.11
9538;BME280;4807;48.024;11.726;2023-02-23T07:50:22;94662.44;;;8.90;69.22
9538;BME280;4807;48.024;11.726;2023-02-23T07:53:30;94661.16;;;8.86;69.31
9538;BME280;4807;48.024;11.726;2023-02-23T07:56:38;94668.59;;;8.97;69.60
9538;BME280;4807;48.024;11.726;2023-02-23T07:59:47;94667.16;;;9.01;69.98
9538;BME280;4807;48.024;11.726;2023-02-23T08:02:57;94671.53;;;9.15;69.45
9538;BME280;4807;48.024;11.726;2023-02-23T08:06:07;94660.53;;;9.31;68.83
9538;BME280;4807;48.024;11.726;2023-02-23T08:09:15;94662.59;;;9.42;68.71
9538;BME280;4807;48.024;11.726;2023-02-23T08:12:23;94668.16;;;9.47;68.60
9538;BME280;4807;48.024;11.726;2023-02-23T08:15:32;94669.38;;;9.58;68.63
9538;BME280;4807;48.024;11.726;2023-02-23T08:18:41;94672.09;;;9.78;68.40
9538;BME280;4807;48.024;11.726;2023-02-23T08:21:50;94671.06;;;9.92;67.30
9538;BME280;4807;48.024;11.726;2023-02-23T08:24:58;94664.09;;;9.91;66.83
9538;BME280;4807;48.024;11.726;2023-02-23T08:28:07;94675.34;;;9.73;66.96
9538;BME280;4807;48.024;11.726;2023-02-23T08:31:16;94674.94;;;9.70;67.02
9538;BME280;4807;48.024;11.726;2023-02-23T08:34:29;94671.25;;;9.64;67.63
9538;BME280;4807;48.024;11.726;2023-02-23T08:37:37;94665.94;;;9.71;67.90
9538;BME280;4807;48.024;11.726;2023-02-23T08:40:46;94670.69;;;9.88;67.46
9538;BME280;4807;48.024;11.726;2023-02-23T08:43:54;94671.69;;;10.01;66.76
9538;BME280;4807;48.024;11.726;2023-02-23T08:47:03;94676.81;;;10.02;67.09
9538;BME280;4807;48.024;11.726;2023-02-23T08:50:15;94680.31;;;10.22;67.41
9538;BME280;4807;48.024;11.726;2023-02-23T08:53:23;94678.25;;;10.57;65.80
9538;BME280;4807;48.024;11.726;2023-02-23T08:56:41;94672.91;;;10.77;66.00
9538;BME280;4807;48.024;11.726;2023-02-23T08:59:50;94669.16;;;10.91;64.62
9538;BME280;4807;48.024;11.726;2023-02-23T09:03:06;94678.13;;;11.03;64.47
9538;BME280;4807;48.024;11.726;2023-02-23T09:06:23;94663.38;;;11.07;64.19
9538;BME280;4807;48.024;11.726;2023-02-23T09:09:32;94673.47;;;11.37;63.25
9538;BME280;4807;48.024;11.726;2023-02-23T09:12:40;94673.25;;;11.45;63.03
9538;BME280;4807;48.024;11.726;2023-02-23T09:15:48;94671.34;;;11.52;63.15
9538;BME280;4807;48.024;11.726;2023-02-23T09:18:57;94675.91;;;11.45;63.45
9538;BME280;4807;48.024;11.726;2023-02-23T09:22:08;94677.28;;;11.16;65.10
9538;BME280;4807;48.024;11.726;2023-02-23T09:25:18;94679.84;;;11.42;63.98
9538;BME280;4807;48.024;11.726;2023-02-23T09:28:28;94680.88;;;11.41;63.82
9538;BME280;4807;48.024;11.726;2023-02-23T09:31:38;94676.09;;;10.99;65.55
9538;BME280;4807;48.024;11.726;2023-02-23T09:34:47;94676.53;;;10.89;66.12
9538;BME280;4807;48.024;11.726;2023-02-23T09:37:57;94674.31;;;10.86;66.07
9538;BME280;4807;48.024;11.726;2023-02-23T09:45:11;94681.06;;;11.40;64.90
9538;BME280;4807;48.024;11.726;2023-02-23T09:48:24;94681.59;;;11.55;64.59
9538;BME280;4807;48.024;11.726;2023-02-23T09:51:40;94688.63;;;11.50;63.92
9538;BME280;4807;48.024;11.726;2023-02-23T09:54:53;94690.97;;;11.26;65.16
9538;BME280;4807;48.024;11.726;2023-02-23T09:58:07;94688.56;;;11.56;64.01
9538;BME280;4807;48.024;11.726;2023-02-23T10:01:58;94693.00;;;11.69;63.63
9538;BME280;4807;48.024;11.726;2023-02-23T10:05:14;94692.47;;;11.54;64.04
9538;BME280;4807;48.024;11.726;2023-02-23T10:08:43;94695.19;;;11.47;64.32
9538;BME280;4807;48.024;11.726;2023-02-23T10:12:05;94697.69;;;11.35;64.70
9538;BME280;4807;48.024;11.726;2023-02-23T10:15:25;94690.47;;;11.49;64.49
9538;BME280;4807;48.024;11.726;2023-02-23T10:18:43;94696.75;;;11.61;63.37
9538;BME280;4807;48.024;11.726;2023-02-23T10:21:57;94683.66;;;11.53;63.90
9538;BME280;4807;48.024;11.726;2023-02-23T10:25:12;94684.78;;;11.77;63.53
9538;BME280;4807;48.024;11.726;2023-02-23T10:28:23;94683.56;;;11.79;63.29
9538;BME280;4807;48.024;11.726;2023-02-23T10:31:40;94675.06;;;12.45;61.16
9538;BME280;4807;48.024;11.726;2023-02-23T10:34:54;94678.75;;;12.69;62.31
9538;BME280;4807;48.024;11.726;2023-02-23T10:38:03;94675.44;;;12.24;61.32
9538;BME280;4807;48.024;11.726;2023-02-23T10:41:12;94675.44;;;11.93;62.06
9538;BME280;4807;48.024;11.726;2023-02-23T10:44:25;94670.72;;;11.95;62.44
9538;BME280;4807;48.024;11.726;2023-02-23T10:47:36;94677.38;;;11.41;62.90
9538;BME280;4807;48.024;11.726;2023-02-23T10:50:46;94665.38;;;11.19;64.83
9538;BME280;4807;48.024;11.726;2023-02-23T10:53:57;94667.84;;;11.14;64.39
9538;BME280;4807;48.024;11.726;2023-02-23T10:57:24;94664.00;;;11.47;63.46
9538;BME280;4807;48.024;11.726;2023-02-23T11:00:37;94667.00;;;11.64;64.22
9538;BME280;4807;48.024;11.726;2023-02-23T11:03:47;94671.25;;;11.78;62.18
9538;BME280;4807;48.024;11.726;2023-02-23T11:07:16;94664.09;;;12.04;62.43
9538;BME280;4807;48.024;11.726;2023-02-23T11:10:26;94653.16;;;12.37;59.88
9538;BME280;4807;48.024;11.726;2023-02-23T11:13:41;94649.91;;;11.78;61.92
9538;BME280;4807;48.024;11.726;2023-02-23T11:16:52;94657.91;;;11.40;62.75
9538;BME280;4807;48.024;11.726;2023-02-23T11:20:04;94654.66;;;11.32;63.11
9538;BME280;4807;48.024;11.726;2023-02-23T11:23:21;94644.69;;;11.59;61.99
9538;BME280;4807;48.024;11.726;2023-02-23T11:26:39;94645.53;;;11.91;63.28
9538;BME280;4807;48.024;11.726;2023-02-23T11:29:54;94646.72;;;12.19;60.17
9538;BME280;4807;48.024;11.726;2023-02-23T11:33:06;94641.66;;;12.36;61.20
9538;BME280;4807;48.024;11.726;2023-02-23T11:36:26;94635.03;;;13.00;58.67
9538;BME280;4807;48.024;11.726;2023-02-23T11:39:35;94636.22;;;12.86;58.74
9538;BME280;4807;48.024;11.726;2023-02-23T11:42:51;94631.72;;;12.86;58.89
9538;BME280;4807;48.024;11.726;2023-02-23T11:46:01;94630.91;;;12.86;60.42
9538;BME280;4807;48.024;11.726;2023-02-23T11:49:19;94625.97;;;12.83;59.24
9538;BME280;4807;48.024;11.726;2023-02-23T11:52:28;94626.44;;;13.16;58.30
9538;BME280;4807;48.024;11.726;2023-02-23T11:55:37;94619.41;;;13.52;56.82
9538;BME280;4807;48.024;11.726;2023-02-23T11:58:49;94615.56;;;13.48;56.00
9538;BME280;4807;48.024;11.726;2023-02-23T12:02:15;94610.47;;;13.28;57.43
9538;BME280;4807;48.024;11.726;2023-02-23T12:05:32;94611.22;;;12.80;57.14
9538;BME280;4807;48.024;11.726;2023-02-23T12:08:45;94620.69;;;12.40;56.86
9538;BME280;4807;48.024;11.726;2023-02-23T12:12:05;94613.56;;;12.09;58.93
9538;BME280;4807;48.024;11.726;2023-02-23T12:15:29;94611.81;;;12.21;58.03
9538;BME280;4807;48.024;11.726;2023-02-23T12:18:46;94597.13;;;12.55;57.67
9538;BME280;4807;48.024;11.726;2023-02-23T12:22:03;94601.19;;;13.12;56.58
9538;BME280;4807;48.024;11.726;2023-02-23T12:25:24;94599.53;;;12.38;61.09
9538;BME280;4807;48.024;11.726;2023-02-23T12:28:39;94596.41;;;11.98;61.52
9538;BME280;4807;48.024;11.726;2023-02-23T12:31:55;94592.59;;;11.88;62.74
9538;BME280;4807;48.024;11.726;2023-02-23T12:35:13;94587.41;;;12.17;60.98
9538;BME280;4807;48.024;11.726;2023-02-23T12:38:39;94593.47;;;12.06;60.16
9538;BME280;4807;48.024;11.726;2023-02-23T12:42:00;94593.41;;;11.88;59.87
9538;BME280;4807;48.024;11.726;2023-02-23T12:45:21;94586.72;;;12.04;59.29
9538;BME280;4807;48.024;11.726;2023-02-23T12:48:43;94584.28;;;12.64;58.13
9538;BME280;4807;48.024;11.726;2023-02-23T12:52:00;94582.50;;;12.76;58.02
9538;BME280;4807;48.024;11.726;2023-02-23T12:55:20;94583.09;;;12.78;57.64
9538;BME280;4807;48.024;11.726;2023-02-23T12:58:41;94583.00;;;12.84;57.09
9538;BME280;4807;48.024;11.726;2023-02-23T13:01:57;94579.69;;;12.89;56.54
9538;BME280;4807;48.024;11.726;2023-02-23T13:05:20;94580.34;;;12.84;56.74
9538;BME280;4807;48.024;11.726;2023-02-23T13:08:55;94585.63;;;12.54;58.68
9538;BME280;4807;48.024;11.726;2023-02-23T13:12:22;94579.31;;;12.85;57.77
9538;BME280;4807;48.024;11.726;2023-02-23T13:15:48;94574.47;;;13.72;55.71
9538;BME280;4807;48.024;11.726;2023-02-23T13:19:10;94570.63;;;13.80;54.84
9538;BME280;4807;48.024;11.726;2023-02-23T13:22:29;94574.75;;;13.94;54.22
9538;BME280;4807;48.024;11.726;2023-02-23T13:25:49;94581.16;;;14.28;51.26
9538;BME280;4807;48.024;11.726;2023-02-23T13:29:16;94576.06;;;14.26;53.16
9538;BME280;4807;48.024;11.726;2023-02-23T13:32:33;94573.78;;;13.88;53.12
9538;BME280;4807;48.024;11.726;2023-02-23T13:35:43;94570.28;;;14.41;51.01
9538;BME280;4807;48.024;11.726;2023-02-23T13:39:31;94576.72;;;13.98;52.20
9538;BME280;4807;48.024;11.726;2023-02-23T13:42:54;94569.09;;;13.72;52.76
9538;BME280;4807;48.024;11.726;2023-02-23T13:46:24;94566.34;;;12.71;54.91
9538;BME280;4807;48.024;11.726;2023-02-23T13:49:39;94562.88;;;12.27;57.99
9538;BME280;4807;48.024;11.726;2023-02-23T13:52:54;94569.13;;;11.96;59.58
9538;BME280;4807;48.024;11.726;2023-02-23T13:56:08;94566.78;;;12.06;59.37
9538;BME280;4807;48.024;11.726;2023-02-23T13:59:20;94561.72;;;11.98;58.45
9538;BME280;4807;48.024;11.726;2023-02-23T14:02:37;94572.13;;;12.06;57.99
9538;BME280;4807;48.024;11.726;2023-02-23T14:05:53;94559.63;;;12.43;58.32
9538;BME280;4807;48.024;11.726;2023-02-23T14:09:15;94562.75;;;12.58;56.91
9538;BME280;4807;48.024;11.726;2023-02-23T14:12:34;94569.53;;;12.18;59.66
9538;BME280;4807;48.024;11.726;2023-02-23T14:15:45;94570.03;;;12.08;58.85
9538;BME280;4807;48.024;11.726;2023-02-23T14:19:13;94566.34;;;12.09;59.28
9538;BME280;4807;48.024;11.726;2023-02-23T14:23:28;94568.50;;;12.19;58.33
9538;BME280;4807;48.024;11.726;2023-02-23T14:26:41;94575.34;;;12.15;60.34
9538;BME280;4807;48.024;11.726;2023-02-23T14:30:15;94570.69;;;12.04;61.15
9538;BME280;4807;48.024;11.726;2023-02-23T14:33:51;94569.88;;;11.78;62.21
9538;BME280;4807;48.024;11.726;2023-02-23T14:37:15;94570.09;;;11.45;64.31
9538;BME280;4807;48.024;11.726;2023-02-23T14:40:32;94570.97;;;11.39;63.83
9538;BME280;4807;48.024;11.726;2023-02-23T14:43:44;94569.13;;;11.40;63.90
9538;BME280;4807;48.024;11.726;2023-02-23T14:47:00;94564.19;;;11.37;63.53
9538;BME280;4807;48.024;11.726;2023-02-23T14:50:24;94564.16;;;11.43;62.95
9538;BME280;4807;48.024;11.726;2023-02-23T14:53:33;94554.41;;;11.62;62.54
9538;BME280;4807;48.024;11.726;2023-02-23T14:56:49;94564.25;;;11.62;61.92
9538;BME280;4807;48.024;11.726;2023-02-23T15:00:05;94558.78;;;11.81;61.73
9538;BME280;4807;48.024;11.726;2023-02-23T15:03:14;94556.97;;;12.00;60.99
9538;BME280;4807;48.024;11.726;2023-02-23T15:06:23;94565.31;;;12.10;59.56
9538;BME280;4807;48.024;11.726;2023-02-23T15:09:39;94563.44;;;12.11;59.23
9538;BME280;4807;48.024;11.726;2023-02-23T15:12:52;94564.34;;;12.05;59.20
9538;BME280;4807;48.024;11.726;2023-02-23T15:16:06;94563.72;;;12.03;60.08
9538;BME280;4807;48.024;11.726;2023-02-23T15:19:33;94563.38;;;11.99;60.69
9538;BME280;4807;48.024;11.726;2023-02-23T15:22:50;94557.38;;;12.04;59.57
9538;BME280;4807;48.024;11.726;2023-02-23T15:25:59;94560.84;;;11.79;59.56
9538;BME280;4807;48.024;11.726;2023-02-23T15:29:18;94558.84;;;11.68;60.23
9538;BME280;4807;48.024;11.726;2023-02-23T15:32:26;94554.56;;;11.67;60.64
9538;BME280;4807;48.024;11.726;2023-02-23T15:35:41;94555.16;;;11.69;61.18
9538;BME280;4807;48.024;11.726;2023-02-23T15:38:55;94548.56;;;11.72;59.92
9538;BME280;4807;48.024;11.726;2023-02-23T15:42:13;94552.69;;;11.74;59.74
9538;BME280;4807;48.024;11.726;2023-02-23T15:45:35;94537.97;;;11.65;60.22
9538;BME280;4807;48.024;11.726;2023-02-23T15:48:49;94543.84;;;11.74;59.70
9538;BME280;4807;48.024;11.726;2023-02-23T15:52:02;94546.72;;;11.72;59.38
9538;BME280;4807;48.024;11.726;2023-02-23T15:55:18;94544.75;;;11.61;60.06
9538;BME280;4807;48.024;11.726;2023-02-23T15:58:37;94547.41;;;11.61;60.25
9538;BME280;4807;48.024;11.726;2023-02-23T16:02:11;94550.75;;;11.57;60.45
9538;BME280;4807;48.024;11.726;2023-02-23T16:05:23;94549.53;;;11.53;60.53
9538;BME280;4807;48.024;11.726;2023-02-23T16:08:54;94556.22;;;11.37;61.42
9538;BME280;4807;48.024;11.726;2023-02-23T16:12:09;94548.41;;;11.35;61.25
9538;BME280;4807;48.024;11.726;2023-02-23T16:15:24;94551.38;;;11.21;61.17
9538;BME280;4807;48.024;11.726;2023-02-23T16:18:40;94548.72;;;11.21;62.45
9538;BME280;4807;48.024;11.726;2023-02-23T16:21:55;94554.72;;;11.16;62.13
9538;BME280;4807;48.024;11.726;2023-02-23T16:25:12;94553.31;;;11.07;61.84
9538;BME280;4807;48.024;11.726;2023-02-23T16:28:28;94544.59;;;10.93;62.76
9538;BME280;4807;48.024;11.726;2023-02-23T16:31:43;94549.47;;;10.96;63.25
9538;BME280;4807;48.024;11.726;2023-02-23T16:35:00;94550.34;;;10.90;63.03
9538;BME280;4807;48.024;11.726;2023-02-23T16:38:14;94550.00;;;10.74;63.40
9538;BME280;4807;48.024;11.726;2023-02-23T16:41:25;94542.44;;;10.64;64.05
9538;BME280;4807;48.024;11.726;2023-02-23T16:44:34;94542.81;;;10.74;62.83
9538;BME280;4807;48.024;11.726;2023-02-23T16:47:51;94555.31;;;10.74;63.18
9538;BME280;4807;48.024;11.726;2023-02-23T16:51:01;94550.47;;;10.57;63.50
9538;BME280;4807;48.024;11.726;2023-02-23T16:54:09;94551.75;;;10.42;64.27
9538;BME280;4807;48.024;11.726;2023-02-23T16:57:20;94559.13;;;10.40;63.92
9538;BME280;4807;48.024;11.726;2023-02-23T17:00:32;94555.88;;;10.24;65.08
9538;BME280;4807;48.024;11.726;2023-02-23T17:03:42;94553.84;;;10.13;65.56
9538;BME280;4807;48.024;11.726;2023-02-23T17:07:00;94553.84;;;10.13;65.84
9538;BME280;4807;48.024;11.726;2023-02-23T17:10:16;94556.28;;;10.08;65.38
9538;BME280;4807;48.024;11.726;2023-02-23T17:13:32;94566.13;;;10.01;65.51
9538;BME280;4807;48.024;11.726;2023-02-23T17:16:40;94563.50;;;9.88;65.90
9538;BME280;4807;48.024;11.726;2023-02-23T17:19:49;94560.81;;;9.75;66.54
9538;BME280;4807;48.024;11.726;2023-02-23T17:23:01;94557.97;;;9.76;66.44
9538;BME280;4807;48.024;11.726;2023-02-23T17:26:10;94562.47;;;9.69;67.17
9538;BME280;4807;48.024;11.726;2023-02-23T17:29:19;94563.28;;;9.63;67.44
9538;BME280;4807;48.024;11.726;2023-02-23T17:32:27;94566.34;;;9.73;66.57
9538;BME280;4807;48.024;11.726;2023-02-23T17:35:36;94568.59;;;9.50;67.71
9538;BME280;4807;48.024;11.726;2023-02-23T17:38:46;94562.06;;;9.39;67.24
9538;BME280;4807;48.024;11.726;2023-02-23T17:41:54;94559.56;;;9.25;68.05